Flight Track Log - Related Links

Times and Time Zones

All times are in EDT time to prevent confusion due to time zone crossing. See the EIN592 flight status page for this flight to view local times or setup timezone preferences in your user account.

Time Position Orientation Groundspeed Altitude Reporting Facility
EDT Latitude Longitude Course Direction KTS MPH feet Rate Location/Type
Mon 01:22:12 AM 53.4230 -6.2490 205° Southwest 8 9  Level FlightAware ADS-B
Mon 01:22:37 AM 53.4220 -6.2480 149° Southeast 11 13 232 Level FlightAware ADS-B
Mon 01:22:47 AM 53.4210 -6.2480 180° South 10 12 260 Level FlightAware ADS-B
Mon 01:23:03 AM 53.4210 -6.2490 270° West 10 12 273 Level FlightAware ADS-B
Mon 01:25:00 AM 53.2024 -6.1908 171° South  Level Estimated
Mon 01:25:40 AM 53.4200 -6.2530 171° South 55 63  Level FlightAware ADS-B
Mon 01:26:05 AM 53.4220 -6.2740 279° West 152 175 900 2,727 Climbing FlightAware ADS-B
Mon 01:26:35 AM 53.4240 -6.3140 275° West 146 168 2,500 2,400 Climbing FlightAware ADS-B
Mon 01:27:05 AM 53.4260 -6.3530 275° West 179 206 3,300 1,418 Climbing FlightAware ADS-B
Mon 01:27:30 AM 53.4280 -6.3900 275° West 218 251 3,800 1,660 Climbing FlightAware ADS-B
Mon 01:27:52 AM 53.4291 -6.4346 275° West 1 1 4,600 2,700 Climbing FlightAware UK
Mon 01:28:10 AM 53.4146 -6.4556 221° Southwest 1 1 5,600 3,143 Climbing FlightAware UK
Mon 01:28:13 AM 53.4120 -6.4560 221° Southwest 233 268 5,700 2,308 Climbing FlightAware ADS-B
Mon 01:28:23 AM 53.4010 -6.4590 221° Southwest 245 282 6,100 2,400 Climbing FlightAware ADS-B
Mon 01:28:28 AM 53.3954 -6.4550 221° Southwest 1 1 6,300 2,824 Climbing FlightAware UK
Mon 01:28:40 AM 53.3814 -6.4565 221° Southwest 1 1 6,900 3,310 Climbing FlightAware UK
Mon 01:28:57 AM 53.3620 -6.4500 221° Southwest 258 297 7,900 3,310 Climbing FlightAware ADS-B
Mon 01:29:09 AM 53.3480 -6.4460 170° South 260 299 8,500 2,903 Climbing FlightAware ADS-B
Mon 01:29:28 AM 53.3245 -6.4400 170° South 286 329 9,400 3,000 Climbing FlightAware UK
Mon 01:29:37 AM 53.3140 -6.4370 170° South 265 305 9,900 2,750 Climbing FlightAware ADS-B
Mon 01:29:52 AM 53.2951 -6.4318 170° South 292 336 10,500 1,818 Climbing FlightAware UK
Mon 01:30:10 AM 53.2724 -6.4274 173° South 314 361 10,900 1,241 Climbing FlightAware UK
Mon 01:30:21 AM 53.2570 -6.4250 173° South 304 350 11,100 1,800 Climbing FlightAware ADS-B
Mon 01:30:40 AM 53.2297 -6.4196 173° South 336 387 11,800 2,432 Climbing FlightAware UK
Mon 01:30:58 AM 53.2033 -6.4141 173° South 342 394 12,600 2,870 Climbing FlightAware UK
Mon 01:31:03 AM 53.1970 -6.4120 173° South 319 367 12,900 3,000 Climbing FlightAware ADS-B
Mon 01:31:22 AM 53.1682 -6.4077 173° South 350 403 13,800 2,919 Climbing FlightAware UK
Mon 01:31:40 AM 53.1423 -6.4042 175° South 344 396 14,700 2,857 Climbing FlightAware UK
Mon 01:31:43 AM 53.1380 -6.4040 175° South 316 364 14,800 2,000 Climbing FlightAware ADS-B
Mon 01:31:58 AM 53.1163 -6.4007 175° South 356 410 15,300 2,545 Climbing FlightAware UK
Mon 01:32:16 AM 53.0896 -6.3977 176° South 362 417 16,200 2,897 Climbing FlightAware UK
Mon 01:32:27 AM 53.0740 -6.3960 176° South 319 367 16,700 2,400 Climbing FlightAware ADS-B
Mon 01:32:46 AM 53.0449 -6.3928 176° South 366 421 17,400 2,270 Climbing FlightAware UK
Mon 01:33:04 AM 53.0179 -6.3890 175° South 378 435 18,100 2,571 Climbing FlightAware UK
Mon 01:33:07 AM 53.0130 -6.3880 175° South 326 375 18,300 3,000 Climbing FlightAware ADS-B
Mon 01:33:22 AM 52.9909 -6.3853 175° South 376 433 19,000 2,000 Climbing FlightAware UK
Mon 01:33:40 AM 52.9637 -6.3811 175° South 380 437 19,400 1,655 Climbing FlightAware UK
Mon 01:33:51 AM 52.9460 -6.3780 175° South 337 388 19,800 2,000 Climbing FlightAware ADS-B
Mon 01:34:10 AM 52.9173 -6.3733 175° South 388 447 20,400 1,946 Climbing FlightAware UK
Mon 01:34:28 AM 52.8887 -6.3689 175° South 392 451 21,000 2,000 Climbing FlightAware UK
Mon 01:34:31 AM 52.8840 -6.3690 175° South 342 394 21,100 2,000 Climbing FlightAware ADS-B
Mon 01:34:46 AM 52.8603 -6.3652 175° South 394 453 21,600 1,636 Climbing FlightAware UK
Mon 01:35:04 AM 52.8316 -6.3613 175° South 394 453 22,000 1,448 Climbing FlightAware UK
Mon 01:35:15 AM 52.8140 -6.3590 175° South 354 407 22,300 1,600 Climbing FlightAware ADS-B
Mon 01:35:34 AM 52.7828 -6.3548 175° South 402 463 22,800 1,459 Climbing FlightAware UK
Mon 01:35:52 AM 52.7528 -6.3505 175° South 406 467 23,200 1,714 Climbing FlightAware UK
Mon 01:35:55 AM 52.7480 -6.3500 175° South 363 418 23,400 1,667 Climbing FlightAware ADS-B
Mon 01:36:10 AM 52.7225 -6.3461 175° South 408 470 23,700 1,091 Climbing FlightAware UK
Mon 01:36:28 AM 52.6918 -6.3415 175° South 408 470 24,000 1,448 Climbing FlightAware UK
Mon 01:36:39 AM 52.6730 -6.3390 175° South 374 430 24,400 1,600 Climbing FlightAware ADS-B
Mon 01:36:58 AM 52.6398 -6.3345 175° South 412 474 24,800 1,135 Climbing FlightAware UK
Mon 01:37:16 AM 52.6081 -6.3304 176° South 416 479 25,100 1,143 Climbing FlightAware UK
Mon 01:37:19 AM 52.6030 -6.3300 176° South 385 443 25,200 1,333 Climbing FlightAware ADS-B
Mon 01:37:34 AM 52.5759 -6.3261 176° South 420 483 25,500 1,273 Climbing FlightAware UK
Mon 01:37:52 AM 52.5433 -6.3216 175° South 422 486 25,900 1,241 Climbing FlightAware UK
Mon 01:38:03 AM 52.5230 -6.3180 175° South 397 457 26,100 1,200 Climbing FlightAware ADS-B
Mon 01:38:22 AM 52.4881 -6.3136 175° South 426 490 26,500 1,297 Climbing FlightAware UK
Mon 01:38:40 AM 52.4547 -6.3089 175° South 428 493 26,900 1,579 Climbing FlightAware UK
Mon 01:38:41 AM 52.4530 -6.3090 175° South 405 466 27,000 1,333 Climbing FlightAware ADS-B
Mon 01:38:58 AM 52.4211 -6.3040 175° South 430 495 27,300 1,029 Climbing FlightAware UK
Mon 01:39:16 AM 52.3872 -6.2993 175° South 430 495 27,600 1,241 Climbing FlightAware UK
Mon 01:39:27 AM 52.3670 -6.2970 175° South 415 478 27,900 1,200 Climbing FlightAware ADS-B
Mon 01:39:46 AM 52.3297 -6.2918 175° South 436 502 28,200 1,167 Climbing FlightAware UK
Mon 01:40:03 AM 52.2970 -6.2870 175° South 421 484 28,600 1,000 Climbing FlightAware ADS-B
Mon 01:40:04 AM 52.2946 -6.2872 175° South 438 504 28,500 947 Descending FlightAware UK
Mon 01:40:22 AM 52.2595 -6.2823 175° South 440 506 28,900 1,333 Climbing FlightAware UK
Mon 01:40:40 AM 52.2244 -6.2771 175° South 442 509 29,300 1,500 Climbing FlightAware UK
Mon 01:40:50 AM 52.2060 -6.2740 175° South 426 490 29,600 1,400 Climbing FlightAware ADS-B
Mon 01:41:10 AM 52.1654 -6.2687 175° South 440 506 30,000 1,263 Climbing FlightAware UK
Mon 01:41:28 AM 52.1301 -6.2638 175° South 438 504 30,400 1,429 Climbing FlightAware UK
Mon 01:41:31 AM 52.1280 -6.2640 175° South 427 491 30,500 1,333 Climbing FlightAware ADS-B
Mon 01:41:46 AM 52.0947 -6.2591 175° South 438 504 30,800 1,273 Climbing FlightAware UK
Mon 01:42:04 AM 52.0592 -6.2544 175° South 438 504 31,200 1,333 Climbing FlightAware UK
Mon 01:42:13 AM 52.0450 -6.2520 175° South 420 483 31,400 1,250 Climbing FlightAware ADS-B
Mon 01:42:28 AM 52.0119 -6.2480 175° South 436 502 31,700 1,273 Climbing FlightAware UK
Mon 01:42:46 AM 51.9764 -6.2432 175° South 434 499 32,100 1,241 Climbing FlightAware UK
Mon 01:42:57 AM 51.9570 -6.2390 175° South 434 499 32,300 800 Climbing FlightAware ADS-B
Mon 01:43:16 AM 51.9168 -6.2283 175° South 434 499 32,500 811 Climbing FlightAware UK
Mon 01:43:34 AM 51.8806 -6.2155 168° South 434 499 32,800 1,143 Climbing FlightAware UK
Mon 01:43:37 AM 51.8770 -6.2140 168° South 443 510 32,900 1,333 Climbing FlightAware ADS-B
Mon 01:43:52 AM 51.8446 -6.2027 168° South 434 499 33,200 1,091 Climbing FlightAware UK
Mon 01:44:10 AM 51.8085 -6.1901 168° South 432 497 33,500 1,154 Climbing FlightAware UK
Mon 01:44:18 AM 51.7980 -6.1860 168° South 442 509 33,700 1,000 Climbing FlightAware ADS-B
Mon 01:44:34 AM 51.7606 -6.1738 168° South 432 497 33,900 1,059 Climbing FlightAware UK
Mon 01:44:52 AM 51.7248 -6.1616 168° South 430 495 34,300 1,304 Climbing FlightAware UK
Mon 01:44:57 AM 51.7170 -6.1590 168° South 441 507 34,400 500 Climbing FlightAware ADS-B
Mon 01:45:16 AM 51.6771 -6.1450 168° South 430 495 34,500 649 Climbing FlightAware UK
Mon 01:45:34 AM 51.6413 -6.1237 160° South 430 495 34,800 1,154 Climbing FlightAware UK
Mon 01:45:42 AM 51.6280 -6.1170 160° South 454 522 35,000 250 Climbing FlightAware ADS-B
Mon 01:45:58 AM 51.5934 -6.0981 160° South 428 493 34,900  Descending FlightAware UK
Mon 01:46:16 AM 51.5572 -6.0788 162° South 426 490 35,000 240 Climbing FlightAware UK
Mon 01:46:23 AM 51.5460 -6.0730 162° South 456 525 35,000  Level FlightAware ADS-B
Mon 01:46:40 AM 51.5093 -6.0533 162° South 430 495 35,000  Level FlightAware UK
Mon 01:46:58 AM 51.4728 -6.0342 162° South 436 502 35,000  Level FlightAware UK
Mon 01:47:04 AM 51.4640 -6.0300 162° South 462 532 35,000  Level FlightAware ADS-B
Mon 01:47:22 AM 51.4234 -6.0081 162° South 444 511 35,000  Level FlightAware UK
Mon 01:47:40 AM 51.3851 -5.9877 162° South 448 516 35,000  Level FlightAware UK
Mon 01:47:49 AM 51.3710 -5.9800 162° South 475 547 35,000  Level FlightAware ADS-B
Mon 01:48:04 AM 51.3337 -5.9605 162° South 452 520 35,000  Level FlightAware UK
Mon 01:48:22 AM 51.2956 -5.9404 162° South 450 518 35,000  Level FlightAware UK
Mon 01:48:34 AM 51.2720 -5.9280 162° South 484 557 35,000  Level FlightAware ADS-B
Mon 01:48:52 AM 51.2318 -5.9069 162° South 450 518 35,000  Level FlightAware UK
Mon 01:49:10 AM 51.1937 -5.8868 162° South 450 518 35,000  Level FlightAware UK
Mon 01:49:14 AM 51.1870 -5.8830 162° South 485 558 35,000  Level FlightAware ADS-B
Mon 01:49:34 AM 51.1426 -5.8600 162° South 450 518 35,000  Level FlightAware UK
Mon 01:49:52 AM 51.1039 -5.8396 162° South 452 520 35,000  Level FlightAware UK
Mon 01:49:57 AM 51.0950 -5.8350 162° South 487 560 35,000  Level FlightAware ADS-B
Mon 01:50:16 AM 51.0526 -5.8129 162° South 450 518 35,000  Level FlightAware UK
Mon 01:50:34 AM 51.0141 -5.7929 162° South 450 518 35,000  Level FlightAware UK
Mon 01:50:37 AM 51.0080 -5.7900 162° South 488 562 35,000  Level FlightAware ADS-B
Mon 01:50:52 AM 50.9757 -5.7727 162° South 448 516 35,000  Level FlightAware UK
Mon 01:51:10 AM 50.9371 -5.7527 162° South 448 516 35,000  Level FlightAware UK
Mon 01:51:22 AM 50.9140 -5.7410 162° South 490 564 35,000  Level FlightAware ADS-B
Mon 01:51:40 AM 50.8728 -5.7191 162° South 450 518 35,000  Level FlightAware UK
Mon 01:51:58 AM 50.8340 -5.6992 162° South 450 518 35,000  Level FlightAware UK
Mon 01:52:03 AM 50.8270 -5.6960 162° South 492 566 35,000  Level FlightAware ADS-B
Mon 01:52:22 AM 50.7820 -5.6725 162° South 450 518 35,000  Level FlightAware UK
Mon 01:52:40 AM 50.7430 -5.6525 162° South 450 518 35,000  Level FlightAware UK
Mon 01:52:43 AM 50.7370 -5.6500 162° South 494 568 35,000  Level FlightAware ADS-B
Mon 01:52:58 AM 50.7038 -5.6323 162° South 448 516 35,000  Level FlightAware UK
Mon 01:53:16 AM 50.6647 -5.6123 162° South 448 516 35,000  Level FlightAware UK
Mon 01:53:25 AM 50.6470 -5.6040 162° South 495 570 35,000  Level FlightAware ADS-B
Mon 01:53:40 AM 50.6125 -5.5857 162° South 448 516 35,000  Level FlightAware UK
Mon 01:53:58 AM 50.5728 -5.5655 162° South 450 518 35,000  Level FlightAware UK
Mon 01:54:07 AM 50.5570 -5.5580 162° South 498 573 35,000  Level FlightAware ADS-B
Mon 01:54:22 AM 50.5207 -5.5388 162° South 448 516 35,000  Level FlightAware UK
Mon 01:54:40 AM 50.4813 -5.5185 162° South 450 518 35,000  Level FlightAware UK
Mon 01:54:49 AM 50.4620 -5.5090 162° South 501 577 35,000  Level FlightAware ADS-B
Mon 01:55:04 AM 50.4285 -5.4918 162° South 450 518 35,000  Level FlightAware UK
Mon 01:55:22 AM 50.3888 -5.4716 162° South 452 520 35,000  Level FlightAware UK
Mon 01:55:31 AM 50.3690 -5.4620 162° South 503 579 35,000  Level FlightAware ADS-B
Mon 01:55:46 AM 50.3356 -5.4448 162° South 452 520 35,000  Level FlightAware UK
Mon 01:56:04 AM 50.2956 -5.4249 162° South 452 520 35,000  Level FlightAware UK
Mon 01:56:15 AM 50.2710 -5.4130 162° South 503 579 35,000  Level FlightAware ADS-B
Mon 01:56:34 AM 50.2291 -5.3918 162° South 452 520 35,000  Level FlightAware UK
Mon 01:56:52 AM 50.1893 -5.3718 162° South 450 518 35,000  Level FlightAware UK
Mon 01:56:55 AM 50.1820 -5.3680 162° South 503 579 35,000  Level FlightAware ADS-B
Mon 01:57:10 AM 50.1494 -5.3519 162° South 450 518 35,000  Level FlightAware UK
Mon 01:57:28 AM 50.1096 -5.3319 162° South 450 518 35,000  Level FlightAware UK
Mon 01:57:39 AM 50.0850 -5.3200 162° South 503 579 35,000  Level FlightAware ADS-B
Mon 01:57:58 AM 50.0432 -5.2988 162° South 450 518 35,000  Level FlightAware UK
Mon 01:58:16 AM 50.0033 -5.2789 162° South 450 518 35,000  Level FlightAware UK
Mon 01:58:20 AM 49.9970 -5.2760 162° South 505 581 35,000  Level FlightAware ADS-B
Mon 01:58:40 AM 49.9501 -5.2524 162° South 450 518 35,000  Level FlightAware UK
Mon 01:58:58 AM 49.9097 -5.2324 162° South 450 518 35,000  Level FlightAware UK
Mon 01:59:01 AM 49.9050 -5.2300 162° South 506 582 35,000  Level FlightAware ADS-B
Mon 01:59:16 AM 49.8702 -5.2126 162° South 450 518 35,000  Level FlightAware UK
Mon 01:59:34 AM 49.8301 -5.1926 162° South 452 520 35,000  Level FlightAware UK
Mon 01:59:45 AM 49.8060 -5.1810 162° South 508 585 35,000  Level FlightAware ADS-B
Mon 02:00:04 AM 49.7630 -5.1596 162° South 452 520 35,000  Level FlightAware UK
Mon 02:00:22 AM 49.7227 -5.1398 162° South 450 518 35,000  Level FlightAware UK
Mon 02:00:27 AM 49.7120 -5.1350 162° South 509 586 35,000  Level FlightAware ADS-B
Mon 02:00:46 AM 49.6688 -5.1132 162° South 452 520 35,000  Level FlightAware UK
Mon 02:01:04 AM 49.6284 -5.0934 162° South 452 520 35,000  Level FlightAware UK
Mon 02:01:07 AM 49.6220 -5.0910 162° South 510 587 35,000  Level FlightAware ADS-B
Mon 02:01:22 AM 49.5874 -5.0735 162° South 452 520 35,000  Level FlightAware UK
Mon 02:01:40 AM 49.5473 -5.0539 162° South 452 520 35,000  Level FlightAware UK
Mon 02:01:47 AM 49.5310 -5.0470 162° South 510 587 35,000  Level FlightAware ADS-B
Mon 02:02:04 AM 49.4929 -5.0274 162° South 452 520 35,000  Level FlightAware UK
Mon 02:02:22 AM 49.4524 -5.0078 163° South 450 518 35,000  Level FlightAware UK
Mon 02:02:31 AM 49.4320 -5.0000 163° South 510 587 35,000  Level FlightAware ADS-B
Mon 02:02:46 AM 49.3970 -4.9895 163° South 450 518 35,000  Level FlightAware UK
Mon 02:03:04 AM 49.3553 -4.9813 173° South 452 520 35,000  Level FlightAware UK
Mon 02:03:15 AM 49.3310 -4.9760 173° South 508 585 35,000  Level FlightAware ADS-B
Mon 02:03:34 AM 49.2854 -4.9665 173° South 450 518 35,000  Level FlightAware UK
Mon 02:03:52 AM 49.2435 -4.9574 172° South 452 520 35,000  Level FlightAware UK
Mon 02:03:55 AM 49.2380 -4.9560 172° South 509 586 35,000  Level FlightAware ADS-B
Mon 02:04:10 AM 49.2016 -4.9480 172° South 452 520 35,000  Level FlightAware UK
Mon 02:04:28 AM 49.1600 -4.9393 172° South 442 509 35,000  Level FlightAware UK
Mon 02:04:40 AM 49.1360 -4.9340 172° South 495 570 35,000  Level FlightAware ADS-B
Mon 02:04:58 AM 49.0926 -4.9250 172° South 436 502 35,000  Level FlightAware UK
Mon 02:05:13 AM 49.0640 -4.9190 172° South 494 568 35,000  Level FlightAware ADS-B
Mon 02:05:16 AM 49.0520 -4.9163 172° South 440 506 35,000  Level FlightAware UK
Mon 02:05:28 AM 49.0249 -4.9105 172° South 442 509 35,000  Level FlightAware UK
Mon 02:05:46 AM 48.9839 -4.9020 172° South 440 506 35,000  Level FlightAware UK
Mon 02:06:01 AM 48.9530 -4.8960 172° South 496 571 35,000  Level FlightAware ADS-B
Mon 02:06:16 AM 48.9157 -4.8874 172° South 440 506 35,000  Level FlightAware UK
Mon 02:06:34 AM 48.8748 -4.8787 172° South 440 506 35,000  Level FlightAware UK
Mon 02:06:44 AM 48.8540 -4.8740 172° South 496 571 35,000  Level FlightAware ADS-B
Mon 02:07:04 AM 48.8067 -4.8639 172° South 442 509 35,000  Level FlightAware UK
Mon 02:07:22 AM 48.7658 -4.8553 172° South 442 509 35,000  Level FlightAware UK
Mon 02:07:24 AM 48.7610 -4.8550 172° South 496 571 35,000  Level FlightAware ADS-B
Mon 02:07:40 AM 48.7249 -4.8467 172° South 440 506 35,000  Level FlightAware UK
Mon 02:07:58 AM 48.6840 -4.8380 172° South 440 506 35,000  Level FlightAware UK
Mon 02:08:08 AM 48.6630 -4.8340 172° South 496 571 35,000  Level FlightAware ADS-B
Mon 02:08:28 AM 48.6157 -4.8236 172° South 442 509 35,000  Level FlightAware UK
Mon 02:08:46 AM 48.5748 -4.8149 172° South 440 506 35,000  Level FlightAware UK
Mon 02:08:48 AM 48.5720 -4.8150 172° South 497 572 35,000  Level FlightAware ADS-B
Mon 02:09:04 AM 48.5338 -4.8062 172° South 440 506 35,000  Level FlightAware UK
Mon 02:09:22 AM 48.4929 -4.7976 172° South 440 506 35,000  Level FlightAware UK
Mon 02:09:32 AM 48.4720 -4.7940 172° South 496 571 35,000  Level FlightAware ADS-B
Mon 02:09:52 AM 48.4247 -4.7833 172° South 440 506 35,000  Level FlightAware UK
Mon 02:10:10 AM 48.3838 -4.7748 172° South 440 506 35,000  Level FlightAware UK
Mon 02:10:12 AM 48.3790 -4.7740 172° South 496 571 35,000  Level FlightAware ADS-B
Mon 02:10:28 AM 48.3434 -4.7661 172° South 438 504 35,000  Level FlightAware UK
Mon 02:10:46 AM 48.3021 -4.7574 172° South 440 506 35,000  Level FlightAware UK
Mon 02:10:56 AM 48.2800 -4.7530 172° South 495 570 35,000  Level FlightAware ADS-B
Mon 02:11:16 AM 48.2345 -4.7433 172° South 438 504 35,000  Level FlightAware UK
Mon 02:11:36 AM 48.1900 -4.7340 172° South 493 567 35,000  Level FlightAware ADS-B
Mon 02:12:20 AM 48.0910 -4.7140 172° South 493 567 35,000  Level FlightAware ADS-B
Mon 02:13:00 AM 47.9990 -4.6950 172° South 492 566 35,000  Level FlightAware ADS-B
Mon 02:13:46 AM 47.8980 -4.6740 172° South 490 564 35,000 -279 Level FlightAware ADS-B
Mon 02:14:26 AM 47.8080 -4.6560 172° South 491 565 34,600 -769 Descending FlightAware ADS-B
Mon 02:15:04 AM 47.7210 -4.6380 172° South 500 575 34,000 -1,000 Descending FlightAware ADS-B
Mon 02:15:50 AM 47.6140 -4.6160 172° South 510 587 33,200 -698 Descending FlightAware ADS-B
Mon 02:16:30 AM 47.5200 -4.5970 172° South 512 589 33,000 -140 Descending FlightAware ADS-B
Mon 02:17:16 AM 47.4120 -4.5750 172° South 520 598 33,000  Level FlightAware ADS-B
Mon 02:17:56 AM 47.3180 -4.5560 172° South 522 601 33,000  Level FlightAware ADS-B
Mon 02:18:40 AM 47.2120 -4.5350 172° South 523 602 33,000  Level FlightAware ADS-B
Mon 02:19:20 AM 47.1160 -4.5160 172° South 522 601 33,000  Level FlightAware ADS-B
Mon 02:20:04 AM 47.0120 -4.4950 172° South 522 601 33,000  Level FlightAware ADS-B
Mon 02:20:44 AM 46.9150 -4.4760 172° South 523 602 33,000  Level FlightAware ADS-B
Mon 02:21:28 AM 46.8090 -4.4550 172° South 523 602 33,000  Level FlightAware ADS-B
Mon 02:22:06 AM 46.7160 -4.4370 172° South 524 603 33,000  Level FlightAware ADS-B
Mon 02:22:49 AM 46.6150 -4.4170 172° South 525 604 33,000  Level FlightAware ADS-B
Mon 02:23:33 AM 46.5090 -4.3960 172° South 528 608 33,000  Level FlightAware ADS-B
Mon 02:24:13 AM 46.4120 -4.3770 172° South 529 609 33,000  Level FlightAware ADS-B
Mon 02:24:57 AM 46.3050 -4.3570 173° South 531 611 33,000  Level FlightAware ADS-B
Mon 02:25:37 AM 46.2060 -4.3380 172° South 531 611 33,000  Level FlightAware ADS-B
Mon 02:26:21 AM 46.0990 -4.3170 172° South 531 611 33,000  Level FlightAware ADS-B
Mon 02:27:01 AM 46.0010 -4.2980 172° South 531 611 33,000  Level FlightAware ADS-B
Mon 02:27:45 AM 45.8930 -4.2780 173° South 530 610 33,000  Level FlightAware ADS-B
Mon 02:28:25 AM 45.8010 -4.2600 172° South 530 610 33,000  Level FlightAware ADS-B
Mon 02:29:05 AM 45.7010 -4.2410 172° South 531 611 33,000  Level FlightAware ADS-B
Mon 02:29:49 AM 45.5940 -4.2210 173° South 533 613 33,000  Level FlightAware ADS-B
Mon 02:30:33 AM 45.4860 -4.2010 173° South 535 616 33,000  Level FlightAware ADS-B
Mon 02:31:14 AM 45.3900 -4.1830 172° South 536 617 33,000  Level FlightAware ADS-B
Mon 02:31:57 AM 45.2790 -4.1620 172° South 538 619 33,000  Level FlightAware ADS-B
Mon 02:32:37 AM 45.1800 -4.1440 173° South 539 620 33,000  Level FlightAware ADS-B
Mon 02:33:17 AM 45.0800 -4.1250 172° South 539 620 33,000  Level FlightAware ADS-B
Mon 02:33:57 AM 44.9830 -4.1070 173° South 539 620 33,000  Level FlightAware ADS-B
Mon 02:34:47 AM 44.8790 -4.0860 172° South 539 620 33,000  Level FlightAware ADS-B
Mon 02:35:19 AM 44.7840 -4.0710 174° South 537 618 33,000  Level FlightAware ADS-B
Mon 02:36:11 AM 44.6750 -4.0490 172° South 537 618 33,000  Level FlightAware ADS-B
Mon 02:36:48 AM 44.5980 -4.0340 172° South 537 618 33,000  Level FlightAware ADS-B
Mon 02:37:24 AM 44.5230 -4.0190 172° South 537 618 33,000  Level FlightAware ADS-B
Mon 02:38:12 AM 44.4220 -3.9990 172° South 537 618 33,000  Level FlightAware ADS-B
Mon 02:38:48 AM 44.2660 -3.9820 176° South 33,000  Level FlightAware ADS-B
Mon 02:40:01 AM 44.0890 -3.9650 176° South 33,000  Level FlightAware ADS-B
Mon 02:40:41 AM 43.9970 -3.9560 176° South 528 608 33,000  Level FlightAware ADS-B
Mon 02:41:26 AM 43.8790 -3.9440 176° South 525 604 33,000  Level FlightAware ADS-B
Mon 02:42:06 AM 43.7970 -3.9360 176° South 525 604 33,000  Level FlightAware ADS-B
Mon 02:42:54 AM 43.6980 -3.9270 176° South 525 604 33,000  Level FlightAware ADS-B
Mon 02:43:30 AM 43.6240 -3.9190 176° South 525 604 33,000 47 Level FlightAware ADS-B
Mon 02:44:16 AM 43.4770 -3.9070 177° South 33,000 65 Level FlightAware ADS-B
Mon 02:45:02 AM 43.3750 -3.9110 182° South 517 595 33,100 73 Climbing FlightAware ADS-B
Mon 02:45:38 AM 43.3010 -3.9140 182° South 517 595 33,100  Level FlightAware ADS-B
Mon 02:46:26 AM 43.2040 -3.9190 182° South 517 595 33,100  Level FlightAware ADS-B
Mon 02:47:02 AM 43.1310 -3.9220 182° South 517 595 33,100 -75 Level FlightAware ADS-B
Mon 02:47:46 AM 42.9810 -3.9720 194° South 503 579 33,000 -62 Descending FlightAware ADS-B
Mon 02:48:39 AM 42.8590 -3.9900 186° South 496 571 33,000  Level FlightAware ADS-B
Mon 02:49:23 AM 42.7600 -4.0040 186° South 493 567 33,000  Level FlightAware ADS-B
Mon 02:50:03 AM 42.6690 -4.0170 186° South 492 566 33,000  Level FlightAware ADS-B
Mon 02:50:46 AM 42.5760 -4.0310 186° South 493 567 33,000  Level FlightAware ADS-B
Mon 02:51:29 AM 42.4680 -4.0470 186° South 495 570 33,000  Level FlightAware ADS-B
Mon 02:52:09 AM 42.3790 -4.0590 186° South 494 568 33,000  Level FlightAware ADS-B
Mon 02:52:54 AM 42.2780 -4.0740 186° South 494 568 33,000 -1,129 Level FlightAware ADS-B
Mon 02:53:34 AM 42.1840 -4.0870 186° South 494 568 31,400 -2,824 Descending FlightAware ADS-B
Mon 02:54:19 AM 42.0820 -4.1020 186° South 491 565 29,000 -2,824 Descending FlightAware ADS-B
Mon 02:54:59 AM 41.9970 -4.1140 186° South 473 544 27,400 -2,475 Descending FlightAware ADS-B
Mon 02:55:39 AM 41.9100 -4.1230 184° South 450 518 25,700 -2,541 Descending FlightAware ADS-B
Mon 02:56:24 AM 41.8190 -4.1330 185° South 427 491 23,800 -2,471 Descending FlightAware ADS-B
Mon 02:57:04 AM 41.7430 -4.1420 185° South 407 468 22,200 -2,475 Descending FlightAware ADS-B
Mon 02:57:44 AM 41.6690 -4.1500 185° South 394 453 20,500 -2,541 Descending FlightAware ADS-B
Mon 02:58:29 AM 41.5890 -4.1590 185° South 385 443 18,600 -2,541 Descending FlightAware ADS-B
Mon 02:59:09 AM 41.5190 -4.1670 185° South 375 432 16,900 -1,624 Descending FlightAware ADS-B
Mon 02:59:54 AM 41.4460 -4.1750 185° South 340 391 16,300 -674 Descending FlightAware ADS-B
Mon 03:00:38 AM 41.3800 -4.1830 185° South 304 350 15,900 -500 Descending FlightAware ADS-B
Mon 03:01:18 AM 41.3240 -4.1890 185° South 302 348 15,600 -380 Descending FlightAware ADS-B
Mon 03:01:57 AM 41.2710 -4.1950 185° South 300 345 15,400 -282 Descending FlightAware ADS-B
Mon 03:02:43 AM 41.2070 -4.1780 169° South 304 350 15,200 -333 Descending FlightAware ADS-B
Mon 03:03:27 AM 41.1470 -4.1590 167° South 296 341 14,900 -429 Descending FlightAware ADS-B
Mon 03:04:07 AM 41.0970 -4.1420 166° South 271 312 14,600 -794 Descending FlightAware ADS-B
Mon 03:04:35 AM 41.0650 -4.1260 159° South 275 316 14,000 -1,364 Descending FlightAware ADS-B
Mon 03:04:51 AM 41.0510 -4.1030 129° Southeast 286 329 13,600 -1,286 Descending FlightAware ADS-B
Mon 03:05:31 AM 41.0360 -4.0370 107° East 285 328 12,800 -1,000 Descending FlightAware ADS-B
Mon 03:06:15 AM 41.0200 -3.9650 106° East 272 313 12,200 -674 Descending FlightAware ADS-B
Mon 03:07:00 AM 41.0050 -3.8950 106° East 275 316 11,800 -500 Descending FlightAware ADS-B
Mon 03:07:39 AM 40.9910 -3.8300 106° East 273 314 11,500 -532 Descending FlightAware ADS-B
Mon 03:08:19 AM 40.9690 -3.7710 116° Southeast 264 304 11,100 -293 Descending FlightAware ADS-B
Mon 03:09:01 AM 40.9450 -3.7110 118° Southeast 264 304 11,100 -75 Level FlightAware ADS-B
Mon 03:09:39 AM 40.9230 -3.6580 119° Southeast 260 299 11,000 -878 Descending FlightAware ADS-B
Mon 03:10:23 AM 40.8930 -3.6030 126° Southeast 252 290 9,900 -1,500 Descending FlightAware ADS-B
Mon 03:10:39 AM 40.8770 -3.5880 145° Southeast 251 289 9,500 -1,400 Descending FlightAware ADS-B
Mon 03:10:53 AM 40.8630 -3.5810 159° South 243 280 9,200 -1,143 Descending FlightAware ADS-B
Mon 03:11:21 AM 40.8330 -3.5770 174° South 227 261 8,700 -1,071 Descending FlightAware ADS-B
Mon 03:11:49 AM 40.8030 -3.5770 180° South 223 257 8,200 -1,000 Descending FlightAware ADS-B
Mon 03:12:15 AM 40.7780 -3.5760 178° South 197 227 7,800 -1,227 Descending FlightAware ADS-B
Mon 03:12:33 AM 40.7610 -3.5760 180° South 194 223 7,300 -1,773 Descending FlightAware ADS-B
Mon 03:12:59 AM 40.7390 -3.5760 180° South 193 222 6,500 -1,778 Descending FlightAware ADS-B
Mon 03:13:27 AM 40.7130 -3.5760 180° South 197 227 5,700 -1,385 Descending FlightAware ADS-B
Mon 03:13:51 AM 40.6920 -3.5760 180° South 190 219 5,300 -931 Descending FlightAware ADS-B
Mon 03:14:25 AM 40.6630 -3.5760 180° South 179 206 4,800 -968 Descending FlightAware ADS-B
Mon 03:14:53 AM 40.6390 -3.5760 180° South 173 199 4,300 -964 Descending FlightAware ADS-B
Mon 03:15:21 AM 40.6170 -3.5750 178° South 169 194 3,900 -857 Descending FlightAware ADS-B
Mon 03:15:49 AM 40.5960 -3.5750 180° South 156 180 3,500 -857 Descending FlightAware ADS-B
Mon 03:16:17 AM 40.5770 -3.5750 180° South 138 159 3,100 -750 Descending FlightAware ADS-B
Mon 03:16:45 AM 40.5600 -3.5750 180° South 137 158 2,800 -655 Descending FlightAware ADS-B
Mon 03:17:12 AM 40.5440 -3.5750 180° South 134 154 2,500 -720 Descending FlightAware ADS-B
Mon 03:17:35 AM 40.5280 -3.5750 180° South 131 151 2,200 -783 Descending FlightAware ADS-B
Mon 03:18:37 AM 40.5040 -3.5750 180° South 30 35 -2,129 Descending FlightAware ADS-B
Mon 03:19:01 AM 40.5020 -3.5770 217° Southwest 32 37  Level FlightAware ADS-B
Mon 03:19:15 AM 40.5010 -3.5770 180° South 25 29  Level FlightAware ADS-B
Mon 03:19:27 AM 40.5000 -3.5770 180° South 24 28  Level FlightAware ADS-B
Mon 03:19:57 AM 40.4990 -3.5770 180° South 32 37  Level FlightAware ADS-B
Mon 03:20:27 AM 40.4970 -3.5780 201° Southwest 32 37  Level FlightAware ADS-B
Mon 03:20:55 AM 40.4970 -3.5800 270° West 32 37  Level FlightAware ADS-B
Mon 03:21:20 AM 40.4970 -3.5840 270° West 32 37  Level FlightAware ADS-B
Mon 03:21:31 AM 40.4960 -3.5810 114° Southeast 16 18  Level FlightAware ADS-B
Mon 03:21:51 AM 40.4940 -3.5810 180° South 20 23  Level FlightAware ADS-B
Mon 03:22:19 AM 40.4910 -3.5810 180° South 22 25  Level FlightAware ADS-B
Mon 03:22:45 AM 40.4900 -3.5810 180° South 11 13  Level FlightAware ADS-B
Mon 03:23:12 AM 40.4890 -3.5810 180° South 2 2  Level FlightAware ADS-B
Mon 03:23:59 AM 40.4880 -3.5810 180° South 15 17  Level FlightAware ADS-B
Mon 03:24:39 AM 40.4850 -3.5790 153° Southeast 23 26  Level FlightAware ADS-B
Mon 03:25:35 AM 40.4800 -3.5750 149° Southeast 26 30  Level FlightAware ADS-B
Mon 03:26:17 AM 40.4760 -3.5710 143° Southeast 22 25  Level FlightAware ADS-B
Mon 03:26:27 AM 40.4750 -3.5700 143° Southeast 21 24  Level FlightAware ADS-B
Mon 03:27:01 AM 40.4720 -3.5670 143° Southeast 21 24  Level FlightAware ADS-B
Mon 03:27:39 AM 40.4700 -3.5660 159° South 33 38  Level FlightAware ADS-B
Mon 03:28:09 AM 40.4680 -3.5660 180° South 17 20  Level FlightAware ADS-B
Mon 03:28:37 AM 40.4650 -3.5660 180° South 23 26  Level FlightAware ADS-B
Mon 03:29:05 AM 40.4630 -3.5660 180° South 24 28  Level FlightAware ADS-B
Mon 03:29:31 AM 40.4630 -3.5670 270° West 23 26  Level FlightAware ADS-B
Mon 03:29:44 AM 40.4630 -3.5680 270° West 30 35  Level FlightAware ADS-B
Mon 03:30:11 AM 40.4670 -3.5670 11° North 30 35  Level FlightAware ADS-B
Mon 03:30:23 AM 40.4640 -3.5690 207° Southwest 2 2  Level FlightAware ADS-B
Mon 03:33:00 AM 40.4936 -3.5668 North  Level Estimated

Login

Don't have an account? Register now (free) for customized features, flight alerts, and more!